Terminal Aerodrome Forecast
Issued by NWS Cleveland, OH

Home | Current Version | Previous Version | Graphics & Text | Print | Product List | Glossary Off
Versions: 1 2 3 4 5 6 7 8 9 10 11 12 13

992
FTUS41 KCLE 200527
TAFERI
TAF
KERI 200527Z 2006/2106 VRB03KT P6SM SCT250
     FM201200 07006KT P6SM FEW110 BKN250
     FM210300 12008KT P6SM BKN250=

USA.gov is the U.S. government's official web portal to all federal, state and local government web resources and services.